createdAt,value
2018-04-30T00:00:49.612Z,0.00
2018-04-30T00:01:49.602Z,0.00
2018-04-30T00:02:49.593Z,0.00
2018-04-30T00:04:10.581Z,0.00
2018-04-30T00:04:49.570Z,0.00
2018-04-30T00:05:49.565Z,0.00
2018-04-30T00:06:49.551Z,0.00
2018-04-30T00:07:49.581Z,0.00
2018-04-30T00:08:49.530Z,0.00
2018-04-30T00:10:10.530Z,0.00
2018-04-30T00:10:49.508Z,0.00
2018-04-30T00:11:49.506Z,0.00
2018-04-30T00:12:49.496Z,0.00
2018-04-30T00:13:49.492Z,0.00
2018-04-30T00:14:49.481Z,0.00
2018-04-30T00:16:10.477Z,0.00
2018-04-30T00:16:49.461Z,0.00
2018-04-30T00:17:49.448Z,0.00
2018-04-30T00:18:49.450Z,0.00
2018-04-30T00:19:49.436Z,0.00
2018-04-30T00:20:49.418Z,0.00
2018-04-30T00:22:10.417Z,0.00
2018-04-30T00:22:49.400Z,0.00
2018-04-30T00:23:49.390Z,0.00
2018-04-30T00:24:49.387Z,0.00
2018-04-30T00:25:49.375Z,0.00
2018-04-30T00:26:49.371Z,0.00
2018-04-30T00:28:10.377Z,0.00
2018-04-30T00:28:49.349Z,0.00
2018-04-30T00:29:49.340Z,0.00
2018-04-30T00:30:49.327Z,0.00
2018-04-30T00:31:49.355Z,0.00
2018-04-30T00:32:49.317Z,0.00
2018-04-30T00:34:10.311Z,0.00
2018-04-30T00:34:49.298Z,0.00
2018-04-30T00:35:49.286Z,0.00
2018-04-30T00:36:49.274Z,0.00
2018-04-30T00:37:49.264Z,0.00
2018-04-30T00:38:49.267Z,0.00
2018-04-30T00:40:10.252Z,0.00
2018-04-30T00:40:49.234Z,0.00
2018-04-30T00:41:49.227Z,0.00
2018-04-30T00:42:49.223Z,0.00
2018-04-30T00:43:49.215Z,0.00
2018-04-30T00:44:49.214Z,0.00
2018-04-30T00:46:10.209Z,0.00
2018-04-30T00:46:49.180Z,0.00
2018-04-30T00:47:49.182Z,0.00
2018-04-30T00:48:49.172Z,0.00
2018-04-30T00:49:49.158Z,0.00
2018-04-30T00:50:49.154Z,0.00
2018-04-30T00:52:10.152Z,0.00
2018-04-30T00:52:49.135Z,0.00
2018-04-30T00:53:49.130Z,0.00
2018-04-30T00:54:49.129Z,0.00
2018-04-30T00:55:49.111Z,0.00
2018-04-30T00:56:49.115Z,0.00
2018-04-30T00:58:10.093Z,0.00
2018-04-30T00:58:49.072Z,0.00
2018-04-30T00:59:49.068Z,0.00
2018-04-30T01:00:49.051Z,0.00
2018-04-30T01:01:49.042Z,0.00
2018-04-30T01:02:49.039Z,0.00
2018-04-30T01:04:10.044Z,0.00
2018-04-30T01:04:49.046Z,0.00
2018-04-30T01:05:49.010Z,0.00
2018-04-30T01:06:49.001Z,0.00
2018-04-30T01:07:48.997Z,0.00
2018-04-30T01:08:48.993Z,0.00
2018-04-30T01:10:09.995Z,0.00
2018-04-30T01:10:48.968Z,0.00
2018-04-30T01:11:48.957Z,0.00
2018-04-30T01:12:48.941Z,0.00
2018-04-30T01:13:48.930Z,0.00
2018-04-30T01:14:48.925Z,0.00
2018-04-30T01:16:10.883Z,0.00
2018-04-30T01:16:48.923Z,0.00
2018-04-30T01:17:48.907Z,0.00
2018-04-30T01:18:48.895Z,0.00
2018-04-30T01:19:48.887Z,0.00
2018-04-30T01:20:48.875Z,0.00
2018-04-30T01:22:09.868Z,0.00
2018-04-30T01:22:48.848Z,0.00
2018-04-30T01:23:48.840Z,0.00
2018-04-30T01:24:48.836Z,0.00
2018-04-30T01:25:48.820Z,0.00
2018-04-30T01:26:48.814Z,0.00
2018-04-30T01:28:09.808Z,0.00
2018-04-30T01:28:48.792Z,0.00
2018-04-30T01:29:48.797Z,0.00
2018-04-30T01:30:48.784Z,0.00
2018-04-30T01:31:48.774Z,0.00
2018-04-30T01:32:48.761Z,0.00
2018-04-30T01:34:09.763Z,0.00
2018-04-30T01:34:48.828Z,0.00
2018-04-30T01:35:48.744Z,0.00
2018-04-30T01:36:48.727Z,0.00
2018-04-30T01:37:48.710Z,0.00
2018-04-30T01:38:48.708Z,0.00
2018-04-30T01:40:09.704Z,0.00
2018-04-30T01:40:48.694Z,0.00
2018-04-30T01:41:48.682Z,0.00
2018-04-30T01:42:48.666Z,0.00
2018-04-30T01:43:48.660Z,0.00
2018-04-30T01:44:48.646Z,0.00
2018-04-30T01:46:09.647Z,0.00
2018-04-30T01:46:48.631Z,0.00
2018-04-30T01:47:48.623Z,0.00
2018-04-30T01:48:48.621Z,0.00
2018-04-30T01:49:48.606Z,0.00
2018-04-30T01:50:48.594Z,0.00
2018-04-30T01:52:09.590Z,0.00
2018-04-30T01:52:48.578Z,0.00
2018-04-30T01:53:48.565Z,0.00
2018-04-30T01:54:48.556Z,0.00
2018-04-30T01:55:48.571Z,0.00
2018-04-30T01:56:48.538Z,0.00
2018-04-30T01:58:09.547Z,0.00
2018-04-30T01:58:48.529Z,0.00
2018-04-30T01:59:48.521Z,0.00
2018-04-30T02:00:48.512Z,0.00
2018-04-30T02:01:48.496Z,0.00
2018-04-30T02:02:48.488Z,0.00
2018-04-30T02:04:09.490Z,0.00
2018-04-30T02:04:48.507Z,0.00
2018-04-30T02:05:48.453Z,0.00
2018-04-30T02:06:48.446Z,0.00
2018-04-30T02:07:48.436Z,0.00
2018-04-30T02:08:48.428Z,0.00
2018-04-30T02:10:09.435Z,0.00
2018-04-30T02:10:48.403Z,0.00
2018-04-30T02:11:48.401Z,0.00
2018-04-30T02:12:48.403Z,0.00
2018-04-30T02:13:48.381Z,0.00
2018-04-30T02:14:48.373Z,0.00
2018-04-30T02:16:09.382Z,0.00
2018-04-30T02:16:48.357Z,0.00
2018-04-30T02:17:48.336Z,0.00
2018-04-30T02:18:48.324Z,0.00
2018-04-30T02:19:48.320Z,0.00
2018-04-30T02:20:48.316Z,0.00
2018-04-30T02:22:09.314Z,0.00
2018-04-30T02:22:48.289Z,0.00
2018-04-30T02:23:48.293Z,0.00
2018-04-30T02:24:48.273Z,0.00
2018-04-30T02:25:48.263Z,0.00
2018-04-30T02:26:48.255Z,0.00
2018-04-30T02:28:09.248Z,0.00
2018-04-30T02:28:48.223Z,0.00
2018-04-30T02:29:48.224Z,0.00
2018-04-30T02:30:48.206Z,0.00
2018-04-30T02:31:48.200Z,0.00
2018-04-30T02:32:48.191Z,0.00
2018-04-30T02:34:09.189Z,0.00
2018-04-30T02:34:48.180Z,0.00
2018-04-30T02:35:48.169Z,0.00
2018-04-30T02:36:48.149Z,0.00
2018-04-30T02:37:48.141Z,0.00
2018-04-30T02:38:48.129Z,0.00
2018-04-30T02:40:09.133Z,0.00
2018-04-30T02:40:48.113Z,0.00
2018-04-30T02:41:48.111Z,0.00
2018-04-30T02:42:48.087Z,0.00
2018-04-30T02:43:48.094Z,0.00
2018-04-30T02:44:48.072Z,0.00
2018-04-30T02:46:09.069Z,0.00
2018-04-30T02:46:48.058Z,0.00
2018-04-30T02:47:48.041Z,0.00
2018-04-30T02:48:48.027Z,0.00
2018-04-30T02:49:48.017Z,0.00
2018-04-30T02:50:48.013Z,0.00
2018-04-30T02:52:09.011Z,0.00
2018-04-30T02:52:47.987Z,0.00
2018-04-30T02:53:47.973Z,0.00
2018-04-30T02:54:47.970Z,0.00
2018-04-30T02:55:47.980Z,0.00
2018-04-30T02:56:47.956Z,0.00
2018-04-30T02:58:08.948Z,0.00
2018-04-30T02:58:47.931Z,0.00
2018-04-30T02:59:47.923Z,0.00
2018-04-30T03:00:47.912Z,0.00
2018-04-30T03:01:47.897Z,0.00
2018-04-30T03:02:47.897Z,0.00
2018-04-30T03:04:08.883Z,0.00
2018-04-30T03:04:47.864Z,0.00
2018-04-30T03:05:47.854Z,0.00
2018-04-30T03:06:47.848Z,0.00
2018-04-30T03:07:47.832Z,0.00
2018-04-30T03:08:47.831Z,0.00
2018-04-30T03:10:08.837Z,0.00
2018-04-30T03:10:47.802Z,0.00
2018-04-30T03:11:47.798Z,0.00
2018-04-30T03:12:47.789Z,0.00
2018-04-30T03:13:47.775Z,0.00
2018-04-30T03:14:47.840Z,0.00
2018-04-30T03:16:08.775Z,0.00
2018-04-30T03:16:47.747Z,0.00
2018-04-30T03:17:47.739Z,0.00
2018-04-30T03:18:47.728Z,0.00
2018-04-30T03:19:47.723Z,0.00
2018-04-30T03:20:47.700Z,0.00
2018-04-30T03:22:08.687Z,0.00
2018-04-30T03:22:47.680Z,0.00
2018-04-30T03:23:47.670Z,0.00
2018-04-30T03:24:47.658Z,0.00
2018-04-30T03:25:47.650Z,0.00
2018-04-30T03:26:47.645Z,0.00
2018-04-30T03:28:08.630Z,0.00
2018-04-30T03:28:47.615Z,0.00
2018-04-30T03:29:47.611Z,0.00
2018-04-30T03:30:47.608Z,0.00
2018-04-30T03:31:47.589Z,0.00
2018-04-30T03:32:47.582Z,0.00
2018-04-30T03:34:08.575Z,0.00
2018-04-30T03:34:47.553Z,0.00
2018-04-30T03:35:47.547Z,0.00
2018-04-30T03:36:47.540Z,0.00
2018-04-30T03:37:47.523Z,0.00
2018-04-30T03:38:47.508Z,0.00
2018-04-30T03:40:08.506Z,0.00
2018-04-30T03:40:47.497Z,0.00
2018-04-30T03:41:47.476Z,0.00
2018-04-30T03:42:47.517Z,0.00
2018-04-30T03:43:47.468Z,0.00
2018-04-30T03:44:47.447Z,0.00
2018-04-30T03:46:08.443Z,0.00
2018-04-30T03:46:47.430Z,0.00
2018-04-30T03:47:47.421Z,0.00
2018-04-30T03:48:47.410Z,0.00
2018-04-30T03:49:47.449Z,0.00
2018-04-30T03:50:47.389Z,0.00
2018-04-30T03:52:08.378Z,0.00
2018-04-30T03:52:47.353Z,0.00
2018-04-30T03:53:47.355Z,0.00
2018-04-30T03:54:47.340Z,0.00
2018-04-30T03:55:47.331Z,0.00
2018-04-30T03:56:47.331Z,0.00
2018-04-30T03:58:08.311Z,0.00
2018-04-30T03:58:47.297Z,0.00
2018-04-30T03:59:47.290Z,0.00
2018-04-30T04:00:47.280Z,0.00
2018-04-30T04:01:47.261Z,4.00
2018-04-30T04:02:47.258Z,0.00
2018-04-30T04:04:08.255Z,4.00
2018-04-30T04:04:47.234Z,4.00
2018-04-30T04:05:47.223Z,4.00
2018-04-30T04:06:47.215Z,4.00
2018-04-30T04:07:47.213Z,4.00
2018-04-30T04:08:47.184Z,4.00
2018-04-30T04:10:08.188Z,8.00
2018-04-30T04:10:47.175Z,8.00
2018-04-30T04:11:47.168Z,12.00
2018-04-30T04:12:47.188Z,12.00
2018-04-30T04:13:47.140Z,12.00
2018-04-30T04:14:47.122Z,16.00
2018-04-30T04:16:08.118Z,16.00
2018-04-30T04:16:47.104Z,16.00
2018-04-30T04:17:47.101Z,16.00
2018-04-30T04:18:47.091Z,20.00
2018-04-30T04:19:47.091Z,16.00
2018-04-30T04:20:47.102Z,20.00
2018-04-30T04:22:08.060Z,20.00
2018-04-30T04:22:47.036Z,24.00
2018-04-30T04:23:47.028Z,24.00
2018-04-30T04:24:47.019Z,24.00
2018-04-30T04:25:47.017Z,24.00
2018-04-30T04:26:46.998Z,28.00
2018-04-30T04:28:07.991Z,28.00
2018-04-30T04:28:46.977Z,32.00
2018-04-30T04:29:46.966Z,28.00
2018-04-30T04:30:46.961Z,32.00
2018-04-30T04:31:46.944Z,32.00
2018-04-30T04:32:46.932Z,32.00
2018-04-30T04:34:07.933Z,36.00
2018-04-30T04:34:46.906Z,36.00
2018-04-30T04:35:46.899Z,36.00
2018-04-30T04:36:46.903Z,36.00
2018-04-30T04:37:46.885Z,40.00
2018-04-30T04:38:46.870Z,40.00
2018-04-30T04:40:07.861Z,40.00
2018-04-30T04:40:46.840Z,40.00
2018-04-30T04:41:46.866Z,36.00
2018-04-30T04:42:46.823Z,36.00
2018-04-30T04:43:46.809Z,40.00
2018-04-30T04:44:46.800Z,40.00
2018-04-30T04:46:07.798Z,40.00
2018-04-30T04:46:46.782Z,44.00
2018-04-30T04:47:46.764Z,48.00
2018-04-30T04:48:46.764Z,48.00
2018-04-30T04:49:46.747Z,52.00
2018-04-30T04:50:46.739Z,52.00
2018-04-30T04:52:07.731Z,52.00
2018-04-30T04:52:46.722Z,52.00
2018-04-30T04:53:46.712Z,56.00
2018-04-30T04:54:46.761Z,56.00
2018-04-30T04:55:46.693Z,56.00
2018-04-30T04:56:46.672Z,56.00
2018-04-30T04:58:07.688Z,60.00
2018-04-30T04:58:46.647Z,60.00
2018-04-30T04:59:46.652Z,60.00
2018-04-30T05:00:46.622Z,64.00
2018-04-30T05:01:46.623Z,60.00
2018-04-30T05:02:46.613Z,64.00
2018-04-30T05:04:07.597Z,68.00
2018-04-30T05:04:46.585Z,64.00
2018-04-30T05:05:46.586Z,64.00
2018-04-30T05:06:46.561Z,68.00
2018-04-30T05:07:46.557Z,68.00
2018-04-30T05:08:46.542Z,68.00
2018-04-30T05:10:07.533Z,68.00
2018-04-30T05:10:46.528Z,72.00
2018-04-30T05:11:46.507Z,72.00
2018-04-30T05:12:46.494Z,72.00
2018-04-30T05:13:46.481Z,68.00
2018-04-30T05:14:46.470Z,60.00
2018-04-30T05:16:07.462Z,60.00
2018-04-30T05:16:46.452Z,60.00
2018-04-30T05:17:46.440Z,60.00
2018-04-30T05:18:46.426Z,60.00
2018-04-30T05:19:46.414Z,64.00
2018-04-30T05:20:46.405Z,72.00
2018-04-30T05:22:07.403Z,76.00
2018-04-30T05:22:46.722Z,88.00
2018-04-30T05:23:46.366Z,96.00
2018-04-30T05:24:46.361Z,120.00
2018-04-30T05:25:46.349Z,140.00
2018-04-30T05:26:46.341Z,148.00
2018-04-30T05:28:07.329Z,144.00
2018-04-30T05:28:46.306Z,124.00
2018-04-30T05:29:46.317Z,112.00
2018-04-30T05:30:46.283Z,112.00
2018-04-30T05:31:46.270Z,108.00
2018-04-30T05:32:46.258Z,100.00
2018-04-30T05:34:07.286Z,96.00
2018-04-30T05:34:46.237Z,96.00
2018-04-30T05:35:46.241Z,100.00
2018-04-30T05:36:46.223Z,96.00
2018-04-30T05:37:46.211Z,92.00
2018-04-30T05:38:46.199Z,92.00
2018-04-30T05:40:07.193Z,92.00
2018-04-30T05:40:46.169Z,96.00
2018-04-30T05:41:46.159Z,100.00
2018-04-30T05:42:46.186Z,104.00
2018-04-30T05:43:46.137Z,108.00
2018-04-30T05:44:46.122Z,108.00
2018-04-30T05:46:07.114Z,104.00
2018-04-30T05:46:46.098Z,104.00
2018-04-30T05:47:46.092Z,100.00
2018-04-30T05:48:46.074Z,104.00
2018-04-30T05:49:46.065Z,100.00
2018-04-30T05:50:46.048Z,100.00
2018-04-30T05:52:07.047Z,100.00
2018-04-30T05:52:46.030Z,100.00
2018-04-30T05:53:46.030Z,104.00
2018-04-30T05:54:46.007Z,100.00
2018-04-30T05:55:45.995Z,104.00
2018-04-30T05:56:45.983Z,104.00
2018-04-30T05:58:06.995Z,104.00
2018-04-30T05:58:45.957Z,104.00
2018-04-30T05:59:45.953Z,104.00
2018-04-30T06:00:45.929Z,104.00
2018-04-30T06:01:45.925Z,104.00
2018-04-30T06:02:45.909Z,108.00
2018-04-30T06:04:06.915Z,104.00
2018-04-30T06:04:45.891Z,104.00
2018-04-30T06:05:45.889Z,104.00
2018-04-30T06:06:45.884Z,108.00
2018-04-30T06:07:45.856Z,108.00
2018-04-30T06:08:45.847Z,108.00
2018-04-30T06:10:06.834Z,108.00
2018-04-30T06:10:45.808Z,112.00
2018-04-30T06:11:45.803Z,112.00
2018-04-30T06:12:45.786Z,112.00
2018-04-30T06:13:45.778Z,112.00
2018-04-30T06:14:45.762Z,120.00
2018-04-30T06:16:06.758Z,128.00
2018-04-30T06:16:45.743Z,152.00
2018-04-30T06:17:45.737Z,264.00
2018-04-30T06:18:45.718Z,392.00
2018-04-30T06:19:45.709Z,420.00
2018-04-30T06:20:45.696Z,420.00
2018-04-30T06:22:06.689Z,428.00
2018-04-30T06:22:45.687Z,436.00
2018-04-30T06:23:45.666Z,440.00
2018-04-30T06:24:45.650Z,444.00
2018-04-30T06:25:45.644Z,448.00
2018-04-30T06:26:45.689Z,456.00
2018-04-30T06:28:06.624Z,460.00
2018-04-30T06:28:45.603Z,468.00
2018-04-30T06:29:45.593Z,476.00
2018-04-30T06:30:45.585Z,480.00
2018-04-30T06:31:45.572Z,484.00
2018-04-30T06:32:45.585Z,492.00
2018-04-30T06:34:06.556Z,500.00
2018-04-30T06:34:45.544Z,504.00
2018-04-30T06:35:45.550Z,512.00
2018-04-30T06:36:45.513Z,520.00
2018-04-30T06:37:45.500Z,528.00
2018-04-30T06:38:45.488Z,532.00
2018-04-30T06:40:06.482Z,540.00
2018-04-30T06:40:45.465Z,544.00
2018-04-30T06:41:45.455Z,556.00
2018-04-30T06:42:45.444Z,560.00
2018-04-30T06:43:45.439Z,568.00
2018-04-30T06:44:45.429Z,576.00
2018-04-30T06:46:06.418Z,584.00
2018-04-30T06:46:45.406Z,592.00
2018-04-30T06:47:45.401Z,600.00
2018-04-30T06:48:45.377Z,612.00
2018-04-30T06:49:45.364Z,620.00
2018-04-30T06:50:45.356Z,628.00
2018-04-30T06:52:06.349Z,636.00
2018-04-30T06:52:45.339Z,636.00
2018-04-30T06:53:45.328Z,644.00
2018-04-30T06:54:45.306Z,644.00
2018-04-30T06:55:45.298Z,652.00
2018-04-30T06:56:45.299Z,656.00
2018-04-30T06:58:06.287Z,660.00
2018-04-30T06:58:45.278Z,668.00
2018-04-30T06:59:45.259Z,672.00
2018-04-30T07:00:45.255Z,676.00
2018-04-30T07:01:45.237Z,684.00
2018-04-30T07:02:45.243Z,692.00
2018-04-30T07:04:06.228Z,696.00
2018-04-30T07:04:45.199Z,704.00
2018-04-30T07:05:45.193Z,704.00
2018-04-30T07:06:45.177Z,712.00
2018-04-30T07:07:45.183Z,720.00
2018-04-30T07:08:45.176Z,724.00
2018-04-30T07:10:06.154Z,732.00
2018-04-30T07:10:45.145Z,736.00
2018-04-30T07:11:45.129Z,744.00
2018-04-30T07:12:45.119Z,752.00
2018-04-30T07:13:45.105Z,760.00
2018-04-30T07:14:45.097Z,764.00
2018-04-30T07:16:06.087Z,772.00
2018-04-30T07:16:45.075Z,780.00
2018-04-30T07:17:45.077Z,784.00
2018-04-30T07:18:45.056Z,792.00
2018-04-30T07:19:45.051Z,800.00
2018-04-30T07:20:45.040Z,808.00
2018-04-30T07:22:06.030Z,816.00
2018-04-30T07:22:45.024Z,820.00
2018-04-30T07:23:45.014Z,828.00
2018-04-30T07:24:45.025Z,840.00
2018-04-30T07:25:44.998Z,844.00
2018-04-30T07:26:45.001Z,852.00
2018-04-30T07:28:05.974Z,860.00
2018-04-30T07:28:44.952Z,872.00
2018-04-30T07:29:44.943Z,880.00
2018-04-30T07:30:44.939Z,884.00
2018-04-30T07:31:44.929Z,896.00
2018-04-30T07:32:44.913Z,904.00
2018-04-30T07:34:05.912Z,912.00
2018-04-30T07:34:44.890Z,920.00
2018-04-30T07:35:44.888Z,928.00
2018-04-30T07:36:44.877Z,936.00
2018-04-30T07:37:44.867Z,948.00
2018-04-30T07:38:44.897Z,960.00
2018-04-30T07:40:05.859Z,964.00
2018-04-30T07:40:44.839Z,976.00
2018-04-30T07:41:44.827Z,984.00
2018-04-30T07:42:44.815Z,992.00
2018-04-30T07:43:44.816Z,1004.00
2018-04-30T07:44:44.804Z,1016.00
2018-04-30T07:46:05.808Z,1024.00
2018-04-30T07:46:44.793Z,1032.00
2018-04-30T07:47:44.777Z,1040.00
2018-04-30T07:48:44.774Z,1052.00
2018-04-30T07:49:44.756Z,1060.00
2018-04-30T07:50:44.751Z,1068.00
2018-04-30T07:52:05.742Z,1072.00
2018-04-30T07:52:44.720Z,1084.00
2018-04-30T07:53:44.717Z,1096.00
2018-04-30T07:54:44.723Z,1104.00
2018-04-30T07:55:44.693Z,1112.00
2018-04-30T07:56:44.678Z,1124.00
2018-04-30T07:58:05.684Z,1128.00
2018-04-30T07:58:44.665Z,1140.00
2018-04-30T07:59:44.656Z,1148.00
2018-04-30T08:00:44.655Z,1152.00
2018-04-30T08:01:44.648Z,1164.00
2018-04-30T08:02:44.631Z,1172.00
2018-04-30T08:04:05.651Z,1180.00
2018-04-30T08:04:44.615Z,1184.00
2018-04-30T08:05:44.602Z,1196.00
2018-04-30T08:06:44.591Z,1204.00
2018-04-30T08:07:44.581Z,1212.00
2018-04-30T08:08:44.576Z,1220.00
2018-04-30T08:10:05.575Z,1224.00
2018-04-30T08:10:44.548Z,1232.00
2018-04-30T08:11:44.543Z,1244.00
2018-04-30T08:12:44.537Z,1248.00
2018-04-30T08:13:44.523Z,1252.00
2018-04-30T08:14:44.524Z,1260.00
2018-04-30T08:16:05.522Z,1268.00
2018-04-30T08:16:44.493Z,1272.00
2018-04-30T08:17:44.487Z,1280.00
2018-04-30T08:18:44.493Z,1288.00
2018-04-30T08:19:44.465Z,1292.00
2018-04-30T08:20:44.459Z,1300.00
2018-04-30T08:22:05.457Z,1304.00
2018-04-30T08:22:44.441Z,1312.00
2018-04-30T08:23:44.433Z,1312.00
2018-04-30T08:24:44.434Z,1320.00
2018-04-30T08:25:44.410Z,1328.00
2018-04-30T08:26:44.402Z,1332.00
2018-04-30T08:28:05.407Z,1336.00
2018-04-30T08:28:44.390Z,1344.00
2018-04-30T08:29:44.385Z,1348.00
2018-04-30T08:30:44.373Z,1352.00
2018-04-30T08:31:44.365Z,1356.00
2018-04-30T08:32:44.361Z,1364.00
2018-04-30T08:34:05.350Z,1368.00
2018-04-30T08:34:44.331Z,1372.00
2018-04-30T08:35:44.325Z,1380.00
2018-04-30T08:36:44.342Z,1384.00
2018-04-30T08:37:44.306Z,1388.00
2018-04-30T08:38:44.297Z,1392.00
2018-04-30T08:40:05.284Z,1400.00
2018-04-30T08:40:44.278Z,1404.00
2018-04-30T08:41:44.285Z,1408.00
2018-04-30T08:42:44.268Z,1416.00
2018-04-30T08:43:44.253Z,1416.00
2018-04-30T08:44:44.260Z,1416.00
2018-04-30T08:46:05.249Z,1420.00
2018-04-30T08:46:44.225Z,1424.00
2018-04-30T08:47:44.214Z,1428.00
2018-04-30T08:48:44.207Z,1440.00
2018-04-30T08:49:44.190Z,1444.00
2018-04-30T08:50:44.187Z,1440.00
2018-04-30T08:52:05.254Z,1440.00
2018-04-30T08:52:44.169Z,1444.00
2018-04-30T08:53:44.161Z,1448.00
2018-04-30T08:54:44.155Z,1456.00
2018-04-30T08:55:44.149Z,1456.00
2018-04-30T08:56:44.142Z,1460.00
2018-04-30T08:58:05.132Z,1464.00
2018-04-30T08:58:44.126Z,1468.00
2018-04-30T08:59:44.106Z,1472.00
2018-04-30T09:00:44.102Z,1476.00
2018-04-30T09:01:44.100Z,1480.00
2018-04-30T09:02:44.101Z,1480.00
2018-04-30T09:04:05.081Z,1480.00
2018-04-30T09:04:44.059Z,1492.00
2018-04-30T09:05:44.047Z,1496.00
2018-04-30T09:06:44.044Z,1504.00
2018-04-30T09:07:44.045Z,1504.00
2018-04-30T09:08:44.033Z,1500.00
2018-04-30T09:10:05.048Z,1504.00
2018-04-30T09:10:44.029Z,1500.00
2018-04-30T09:11:44.004Z,1504.00
2018-04-30T09:12:44.007Z,1508.00
2018-04-30T09:13:43.980Z,1516.00
2018-04-30T09:14:43.987Z,1524.00
2018-04-30T09:16:04.965Z,1532.00
2018-04-30T09:16:43.952Z,1544.00
2018-04-30T09:17:43.966Z,1560.00
2018-04-30T09:18:43.936Z,1072.00
2018-04-30T09:19:43.950Z,1616.00
2018-04-30T09:20:43.911Z,1604.00
2018-04-30T09:22:04.913Z,1588.00
2018-04-30T09:22:43.904Z,1588.00
2018-04-30T09:23:43.894Z,1392.00
2018-04-30T09:24:43.868Z,1588.00
2018-04-30T09:25:43.887Z,1608.00
2018-04-30T09:26:43.857Z,1628.00
2018-04-30T09:28:04.869Z,1648.00
2018-04-30T09:28:43.847Z,1656.00
2018-04-30T09:29:43.843Z,1664.00
2018-04-30T09:30:43.817Z,1672.00
2018-04-30T09:31:43.815Z,1672.00
2018-04-30T09:32:43.798Z,1676.00
2018-04-30T09:34:04.794Z,1704.00
2018-04-30T09:34:43.783Z,1736.00
2018-04-30T09:35:43.767Z,1768.00
2018-04-30T09:36:43.755Z,1792.00
2018-04-30T09:37:43.751Z,1840.00
2018-04-30T09:38:43.739Z,1840.00
2018-04-30T09:40:04.784Z,1800.00
2018-04-30T09:40:43.725Z,1660.00
2018-04-30T09:41:43.711Z,1804.00
2018-04-30T09:42:43.696Z,1788.00
2018-04-30T09:43:43.715Z,852.00
2018-04-30T09:44:43.697Z,1580.00
2018-04-30T09:46:04.688Z,1432.00
2018-04-30T09:46:43.670Z,1904.00
2018-04-30T09:47:43.662Z,988.00
2018-04-30T09:48:43.654Z,1512.00
2018-04-30T09:49:43.638Z,720.00
2018-04-30T09:50:43.635Z,1364.00
2018-04-30T09:52:04.630Z,836.00
2018-04-30T09:52:43.603Z,584.00
2018-04-30T09:53:43.602Z,620.00
2018-04-30T09:54:43.590Z,664.00
2018-04-30T09:55:43.583Z,1076.00
2018-04-30T09:56:43.588Z,1492.00
2018-04-30T09:58:04.567Z,720.00
2018-04-30T09:58:43.565Z,636.00
2018-04-30T09:59:43.539Z,572.00
2018-04-30T10:00:43.545Z,540.00
2018-04-30T10:01:43.526Z,560.00
2018-04-30T10:02:43.528Z,636.00
2018-04-30T10:04:04.516Z,1208.00
2018-04-30T10:04:43.504Z,620.00
2018-04-30T10:05:43.490Z,584.00
2018-04-30T10:06:43.491Z,612.00
2018-04-30T10:07:43.476Z,892.00
2018-04-30T10:08:43.457Z,1900.00
2018-04-30T10:10:04.458Z,1868.00
2018-04-30T10:10:43.442Z,696.00
2018-04-30T10:11:43.443Z,1860.00
2018-04-30T10:12:43.413Z,1912.00
2018-04-30T10:13:43.415Z,1752.00
2018-04-30T10:14:43.409Z,624.00
2018-04-30T10:16:04.397Z,640.00
2018-04-30T10:16:43.397Z,660.00
2018-04-30T10:17:43.414Z,892.00
2018-04-30T10:18:43.366Z,664.00
2018-04-30T10:19:43.362Z,696.00
2018-04-30T10:20:43.339Z,696.00
2018-04-30T10:22:04.341Z,748.00
2018-04-30T10:22:43.323Z,2100.00
2018-04-30T10:23:43.421Z,816.00
2018-04-30T10:24:43.306Z,712.00
2018-04-30T10:25:43.298Z,908.00
2018-04-30T10:26:43.302Z,852.00
2018-04-30T10:28:04.288Z,948.00
2018-04-30T10:28:43.264Z,1956.00
2018-04-30T10:29:43.258Z,572.00
2018-04-30T10:30:43.264Z,568.00
2018-04-30T10:31:43.325Z,576.00
2018-04-30T10:32:43.240Z,948.00
2018-04-30T10:34:04.230Z,664.00
2018-04-30T10:34:43.217Z,652.00
2018-04-30T10:35:43.199Z,700.00
2018-04-30T10:36:43.197Z,740.00
2018-04-30T10:37:43.217Z,792.00
2018-04-30T10:38:43.175Z,768.00
2018-04-30T10:40:04.208Z,2104.00
2018-04-30T10:40:43.153Z,924.00
2018-04-30T10:41:43.148Z,908.00
2018-04-30T10:42:43.144Z,1840.00
2018-04-30T10:43:43.136Z,744.00
2018-04-30T10:44:43.118Z,1200.00
2018-04-30T10:46:04.130Z,1596.00
2018-04-30T10:46:43.102Z,1988.00
2018-04-30T10:47:43.092Z,2028.00
2018-04-30T10:48:43.080Z,2116.00
2018-04-30T10:49:43.069Z,836.00
2018-04-30T10:50:43.063Z,660.00
2018-04-30T10:52:04.052Z,1076.00
2018-04-30T10:52:43.054Z,2128.00
2018-04-30T10:53:43.041Z,2160.00
2018-04-30T10:54:43.025Z,1088.00
2018-04-30T10:55:43.020Z,1008.00
2018-04-30T10:56:43.001Z,2224.00
2018-04-30T10:58:04.001Z,2152.00
2018-04-30T10:58:42.987Z,1344.00
2018-04-30T10:59:42.980Z,2188.00
2018-04-30T11:00:42.974Z,2224.00
2018-04-30T11:01:42.959Z,2280.00
2018-04-30T11:02:43.006Z,2280.00
2018-04-30T11:04:03.954Z,1612.00
2018-04-30T11:04:42.934Z,684.00
2018-04-30T11:05:42.929Z,1036.00
2018-04-30T11:06:42.921Z,680.00
2018-04-30T11:07:42.913Z,2280.00
2018-04-30T11:08:42.907Z,1944.00
2018-04-30T11:10:03.907Z,1096.00
2018-04-30T11:10:42.884Z,664.00
2018-04-30T11:11:42.877Z,660.00
2018-04-30T11:12:42.873Z,2360.00
2018-04-30T11:13:42.857Z,2284.00
2018-04-30T11:14:42.848Z,2256.00
2018-04-30T11:16:03.842Z,2276.00
2018-04-30T11:16:42.830Z,632.00
2018-04-30T11:17:42.822Z,600.00
2018-04-30T11:18:42.819Z,688.00
2018-04-30T11:19:42.806Z,884.00
2018-04-30T11:20:42.802Z,2492.00
2018-04-30T11:22:03.794Z,2376.00
2018-04-30T11:22:42.860Z,2392.00
2018-04-30T11:23:42.779Z,2372.00
2018-04-30T11:24:42.772Z,900.00
2018-04-30T11:25:42.756Z,2464.00
2018-04-30T11:26:42.746Z,996.00
2018-04-30T11:28:03.744Z,624.00
2018-04-30T11:28:42.734Z,2392.00
2018-04-30T11:29:42.718Z,2412.00
2018-04-30T11:30:42.712Z,2308.00
2018-04-30T11:31:42.709Z,1728.00
2018-04-30T11:32:42.699Z,2556.00
2018-04-30T11:34:03.782Z,688.00
2018-04-30T11:34:42.685Z,640.00
2018-04-30T11:35:42.679Z,636.00
2018-04-30T11:36:42.662Z,660.00
2018-04-30T11:37:42.659Z,756.00
2018-04-30T11:38:42.647Z,772.00
2018-04-30T11:40:03.723Z,2572.00
2018-04-30T11:40:42.630Z,728.00
2018-04-30T11:41:42.624Z,820.00
2018-04-30T11:42:42.614Z,856.00
2018-04-30T11:43:42.612Z,1628.00
2018-04-30T11:44:42.604Z,2744.00
2018-04-30T11:46:03.600Z,1992.00
2018-04-30T11:46:42.585Z,944.00
2018-04-30T11:47:42.580Z,956.00
2018-04-30T11:48:42.575Z,816.00
2018-04-30T11:49:42.559Z,1944.00
2018-04-30T11:50:42.568Z,776.00
2018-04-30T11:52:03.551Z,664.00
2018-04-30T11:52:42.539Z,692.00
2018-04-30T11:53:42.530Z,764.00
2018-04-30T11:54:42.524Z,2828.00
2018-04-30T11:55:42.516Z,2824.00
2018-04-30T11:56:42.501Z,2672.00
2018-04-30T11:58:03.505Z,2748.00
2018-04-30T11:58:42.556Z,2760.00
2018-04-30T11:59:42.483Z,2620.00
2018-04-30T12:00:42.478Z,620.00
2018-04-30T12:01:42.460Z,624.00
2018-04-30T12:02:42.464Z,612.00
2018-04-30T12:04:03.482Z,668.00
2018-04-30T12:04:42.435Z,704.00
2018-04-30T12:05:42.430Z,804.00
2018-04-30T12:06:42.418Z,2992.00
2018-04-30T12:07:42.415Z,2908.00
2018-04-30T12:08:42.409Z,2828.00
2018-04-30T12:10:03.429Z,2872.00
2018-04-30T12:10:42.389Z,2872.00
2018-04-30T12:11:42.383Z,1216.00
2018-04-30T12:12:42.375Z,836.00
2018-04-30T12:13:42.375Z,952.00
2018-04-30T12:14:42.369Z,2800.00
2018-04-30T12:16:03.356Z,2480.00
2018-04-30T12:16:42.338Z,3040.00
2018-04-30T12:17:42.330Z,788.00
2018-04-30T12:18:42.327Z,3112.00
2018-04-30T12:19:42.321Z,2968.00
2018-04-30T12:20:42.315Z,3016.00
2018-04-30T12:22:03.381Z,2752.00
2018-04-30T12:22:42.296Z,1732.00
2018-04-30T12:23:42.284Z,2976.00
2018-04-30T12:24:42.279Z,2912.00
2018-04-30T12:25:42.271Z,2672.00
2018-04-30T12:26:42.261Z,956.00
2018-04-30T12:28:03.265Z,696.00
2018-04-30T12:28:42.242Z,736.00
2018-04-30T12:29:42.244Z,3204.00
2018-04-30T12:30:42.228Z,3100.00
2018-04-30T12:31:42.228Z,776.00
2018-04-30T12:32:42.218Z,732.00
2018-04-30T12:34:03.223Z,700.00
2018-04-30T12:34:42.201Z,796.00
2018-04-30T12:35:42.200Z,3268.00
2018-04-30T12:36:42.186Z,1696.00
2018-04-30T12:37:42.187Z,3152.00
2018-04-30T12:38:42.170Z,3172.00
2018-04-30T12:40:03.189Z,2608.00
2018-04-30T12:40:42.152Z,1592.00